< < Back
Terminal Aerodrome Forecast


Current Version              Previous Versions:   1  2  3  4  5  6  7  8  9  

Terminal Aerodrome Forecast

269
FTUS42 KCHS 301720
TAFCHS
TAF
KCHS 301720Z 3018/0118 15012G17KT P6SM SCT035 BKN250
     FM302330 14009KT P6SM FEW040 BKN250
     FM010600 14005KT P6SM SCT009 BKN015
     FM011400 18009KT P6SM SCT015 BKN035=



Latest METAR

924
SAUS80 KWBC 010400 RRJ
MTRCHS
METAR KCHS 010356Z 11008KT 10SM FEW035 SCT250 22/19 A3007 RMK AO2 SLP181
T02220194


USA.gov is the U.S. government's official web portal to all federal, state and local government web resources and services.